Bookmark and Share
Track history (hours):
 

As Olivia

Last reported at 2014-Apr-18 05:33 UTC. Time now 2014-Apr-21 12:09 UTC.
Position N 29°59' E 121°48'.

Length 146 m; draft 6 m.

Type: Ship (hazmat cat B). MMSI: 548767000.

NotesDate/timePositionNaut miles runAvg speedWind from/ knotsBaromVisibWave heightAir tempDewpointWater temp
2014-Apr-18 05:33N 29°59' E 121°48'1110.9
2014-Apr-18 04:33N 29°57' E 121°60'1312.7
2014-Apr-18 03:33N 29°51' E 122°12'10 9.1
2014-Apr-18 02:28N 29°45' E 122°22'1 0.7
2014-Apr-18 01:30N 29°45' E 122°22'0 0.0
2014-Apr-18 00:30N 29°45' E 122°22'0 0.1
2014-Apr-17 23:24N 29°45' E 122°22'0 0.1
2014-Apr-17 22:33N 29°45' E 122°22'0 0.1
2014-Apr-17 21:30N 29°45' E 122°23'0 0.0
2014-Apr-17 20:30N 29°45' E 122°23'0 0.0
2014-Apr-17 19:30N 29°45' E 122°23'0 0.0
2014-Apr-17 18:30N 29°45' E 122°23'0 0.1
2014-Apr-17 17:30N 29°45' E 122°23'0 0.1
2014-Apr-17 16:24N 29°45' E 122°22'0 0.0
2014-Apr-17 06:30N 29°45' E 122°23'0 0.0
2014-Apr-17 05:30N 29°45' E 122°23'0 0.1
2014-Apr-17 04:30N 29°45' E 122°23'0 0.1
2014-Apr-17 03:30N 29°45' E 122°22'0 0.0
2014-Apr-17 02:24N 29°45' E 122°22'0 0.0
2014-Apr-17 01:30N 29°45' E 122°22'0 0.1
2014-Apr-17 00:30N 29°45' E 122°22'0 0.0
2014-Apr-16 23:24N 29°45' E 122°22'0 0.2
2014-Apr-16 22:34N 29°45' E 122°23'7 7.4
2014-Apr-16 21:33N 29°45' E 122°31'1211.9
2014-Apr-16 20:33N 29°48' E 122°44'45512.3
2014-Apr-15 07:33N 35°00' E 129°17'  
2014-Apr-12 02:23N 25°31' E 120°46'1415.1
2014-Apr-12 01:28N 25°20' E 120°37'1314.4
2014-Apr-12 00:33N 25°09' E 120°29'1414.3
2014-Apr-11 23:33N 24°57' E 120°20'1614.5
2014-Apr-11 22:28N 24°44' E 120°10'1314.7
2014-Apr-11 21:33N 24°33' E 120°02'1414.3
2014-Apr-11 20:33N 24°20' E 119°57'1515.0
2014-Apr-11 19:33N 24°05' E 119°56'1514.5
2014-Apr-11 18:33N 23°50' E 119°55'1614.2
2014-Apr-11 17:26N 23°34' E 119°56'1214.0
2014-Apr-11 16:33N 23°22' E 119°55'1414.1
2014-Apr-11 15:33N 23°08' E 119°55'1413.7
2014-Apr-11 14:33N 22°54' E 119°55'1212.2
2014-Apr-11 13:33N 22°44' E 120°02'1313.0
2014-Apr-11 12:33N 22°38' E 120°15'3 0.5
2014-Apr-11 05:31N 22°36' E 120°18'1 0.4
2014-Apr-11 02:32N 22°35' E 120°18'0 0.0
2014-Apr-11 00:32N 22°35' E 120°18'0 0.0
2014-Apr-10 20:32N 22°35' E 120°18'0 0.0
2014-Apr-10 14:11N 22°35' E 120°18'3 4.5
2014-Apr-10 13:33N 22°37' E 120°16'4 4.4
2014-Apr-10 12:33N 22°37' E 120°11'1212.1
2014-Apr-10 11:33N 22°30' E 120°01'1 0.8
2014-Apr-10 10:33N 22°30' E 119°60'9 9.2
2014-Apr-10 09:33N 22°28' E 119°50'32713.6
2014-Apr-09 09:33N 22°07' E 113°57'9 9.3
2014-Apr-09 08:33N 22°09' E 113°48'1212.1
2014-Apr-09 07:33N 22°21' E 113°47'1212.1
2014-Apr-09 06:33N 22°33' E 113°44'1212.2
2014-Apr-09 05:33N 22°45' E 113°39'1110.6
2014-Apr-09 04:33N 22°54' E 113°34'3 3.0
2014-Apr-09 03:31N 22°57' E 113°33'0 0.0
2014-Apr-09 02:29N 22°57' E 113°33'0 0.0
2014-Apr-09 01:32N 22°57' E 113°33'0 0.0
2014-Apr-08 23:27N 22°57' E 113°33'0 0.0
2014-Apr-08 22:20N 22°57' E 113°33'0 0.0
2014-Apr-08 21:31N 22°57' E 113°33'0 0.0
2014-Apr-08 20:16N 22°57' E 113°33'0 0.0
2014-Apr-08 19:33N 22°57' E 113°33'0 0.0
2014-Apr-08 18:32N 22°57' E 113°33'0 0.0
2014-Apr-08 17:33N 22°57' E 113°33'0 0.0
2014-Apr-08 16:32N 22°57' E 113°33'0 0.0
2014-Apr-08 14:26N 22°57' E 113°33'0 0.0
2014-Apr-08 13:32N 22°57' E 113°33'0 0.0
2014-Apr-08 12:33N 22°57' E 113°33'0 0.0
2014-Apr-08 11:22N 22°57' E 113°33'0 0.0
2014-Apr-08 08:33N 22°57' E 113°33'0 0.0
2014-Apr-08 07:31N 22°57' E 113°33'2 1.9
2014-Apr-08 06:33N 22°55' E 113°34'1110.9
2014-Apr-08 05:33N 22°45' E 113°39'  

Dump ship's entire track history

sailing weather and tide predictions

As Olivia — DYQC — position and weather